Time;durP1;ratioP1;P1;durP2;ratioP2;P2;SDS_P1;SDS_P2;PMS_P1;PMS_P2;Temp;Humidity;BMP_temperature;BMP_pressure;BME280_temperature;BME280_humidity;BME280_pressure;Samples;Min_cycle;Max_cycle;Signal;HPM_P1;HPM_P2
2022/03/25 00:01:07;;;;;;;34.83;24.03;;;8.30;99.90;;;;;;4932616;29;20240;-63
2022/03/25 00:03:35;;;;;;;40.30;26.27;;;8.20;99.90;;;;;;4917136;29;20272;-63
2022/03/25 00:06:04;;;;;;;39.60;28.63;;;8.20;99.90;;;;;;4933605;29;20598;-63
2022/03/25 00:08:33;;;;;;;38.07;26.27;;;8.10;99.90;;;;;;4930561;29;20292;-63
2022/03/25 00:11:02;;;;;;;39.57;26.57;;;8.10;99.90;;;;;;4914234;29;20261;-63
2022/03/25 00:13:30;;;;;;;37.87;24.10;;;8.00;99.90;;;;;;4897320;29;20293;-63
2022/03/25 00:16:00;;;;;;;41.70;28.33;;;8.10;99.90;;;;;;4914462;29;20245;-63
2022/03/25 00:18:28;;;;;;;44.60;28.50;;;8.00;99.90;;;;;;4917496;29;20663;-63
2022/03/25 00:20:56;;;;;;;41.33;29.03;;;7.90;99.90;;;;;;4933412;29;20298;-63
2022/03/25 00:23:25;;;;;;;43.20;29.30;;;7.90;99.90;;;;;;4914745;29;20246;-63
2022/03/25 00:25:53;;;;;;;44.53;29.77;;;7.80;99.90;;;;;;4914242;29;20232;-63
2022/03/25 00:28:21;;;;;;;42.33;29.07;;;7.70;99.90;;;;;;4914099;29;20240;-63
2022/03/25 00:30:50;;;;;;;35.13;24.87;;;7.60;99.90;;;;;;4914097;29;20701;-63
2022/03/25 00:33:20;;;;;;;40.93;24.83;;;7.70;99.90;;;;;;4914494;29;20264;-63
2022/03/25 00:35:48;;;;;;;35.17;24.37;;;7.70;99.90;;;;;;4921080;29;20582;-63
2022/03/25 00:38:16;;;;;;;43.00;28.33;;;7.90;99.90;;;;;;4914285;29;20661;-63
2022/03/25 00:40:44;;;;;;;40.13;27.23;;;7.90;99.90;;;;;;4933029;29;20720;-63
2022/03/25 00:43:13;;;;;;;41.60;28.57;;;7.80;99.90;;;;;;4916836;29;20719;-63
2022/03/25 00:45:42;;;;;;;42.40;27.70;;;7.90;99.90;;;;;;4914153;29;20241;-63
2022/03/25 00:48:10;;;;;;;41.60;27.83;;;7.80;99.90;;;;;;4914427;29;20261;-63
2022/03/25 00:50:40;;;;;;;39.73;27.10;;;7.70;99.90;;;;;;4913672;29;20252;-63
2022/03/25 00:53:09;;;;;;;41.50;27.67;;;7.70;99.90;;;;;;4914379;29;20252;-63
2022/03/25 00:55:37;;;;;;;36.97;24.57;;;7.70;99.90;;;;;;4913930;29;20295;-63
2022/03/25 00:58:08;;;;;;;41.03;27.37;;;7.70;99.90;;;;;;4897569;29;20673;-63
2022/03/25 01:00:37;;;;;;;33.87;24.20;;;7.70;99.90;;;;;;4932687;29;20660;-63
2022/03/25 01:03:06;;;;;;;38.33;26.37;;;7.70;99.90;;;;;;4918084;29;20281;-63
2022/03/25 01:05:34;;;;;;;44.30;28.57;;;7.60;99.90;;;;;;4913736;29;20664;-63
2022/03/25 01:08:05;;;;;;;42.17;28.47;;;7.40;99.90;;;;;;4896953;29;20633;-63
2022/03/25 01:10:34;;;;;;;43.70;28.13;;;7.50;99.90;;;;;;4913602;29;20264;-63
2022/03/25 01:13:03;;;;;;;35.47;22.50;;;7.40;99.90;;;;;;4913728;29;20266;-63
2022/03/25 01:15:31;;;;;;;37.70;26.53;;;7.60;99.90;;;;;;4904797;29;20237;-63
2022/03/25 01:17:59;;;;;;;42.87;26.83;;;7.50;99.90;;;;;;4913813;29;20289;-63
2022/03/25 01:20:29;;;;;;;35.37;23.27;;;7.40;99.90;;;;;;4930849;29;20318;-63
2022/03/25 01:22:57;;;;;;;40.17;26.67;;;7.70;99.90;;;;;;4905733;29;20252;-63
2022/03/25 01:25:27;;;;;;;36.67;23.83;;;7.50;99.90;;;;;;4934039;29;20245;-63
2022/03/25 01:27:55;;;;;;;35.60;23.73;;;7.50;99.90;;;;;;4919173;29;20243;-63
2022/03/25 01:30:24;;;;;;;37.63;25.67;;;7.70;99.90;;;;;;4919043;29;20247;-63
2022/03/25 01:32:53;;;;;;;39.77;26.10;;;7.50;99.90;;;;;;4923422;29;20240;-63
2022/03/25 01:35:24;;;;;;;32.30;23.27;;;7.40;99.90;;;;;;4916942;29;20311;-63
2022/03/25 01:37:52;;;;;;;38.43;26.57;;;7.50;99.90;;;;;;4900220;29;20300;-63
2022/03/25 01:40:20;;;;;;;34.07;23.33;;;7.40;99.90;;;;;;4916539;29;20236;-63
2022/03/25 01:42:50;;;;;;;36.27;24.77;;;7.50;99.90;;;;;;4923682;29;20327;-63
2022/03/25 01:45:31;;;;;;;36.03;23.90;;;7.50;99.90;;;;;;4932791;29;20263;-63
2022/03/25 01:48:00;;;;;;;32.80;22.53;;;7.50;99.90;;;;;;4935711;29;20247;-63
2022/03/25 01:50:31;;;;;;;42.27;27.57;;;7.40;99.90;;;;;;4918625;29;20232;-63
2022/03/25 01:52:59;;;;;;;30.47;21.20;;;7.20;99.90;;;;;;4922788;29;20245;-63
2022/03/25 01:55:28;;;;;;;38.07;25.67;;;7.20;99.90;;;;;;4907646;29;20288;-63
2022/03/25 01:57:59;;;;;;;34.07;23.57;;;7.30;99.90;;;;;;4916860;29;20244;-63
2022/03/25 02:00:29;;;;;;;37.00;24.80;;;7.20;99.90;;;;;;4932781;29;20236;-63
2022/03/25 02:02:57;;;;;;;35.00;22.77;;;7.20;99.90;;;;;;4923012;29;20249;-63
2022/03/25 02:05:26;;;;;;;37.57;24.10;;;7.20;99.90;;;;;;4899160;29;20296;-63
2022/03/25 02:07:55;;;;;;;37.03;24.70;;;7.20;99.90;;;;;;4916333;29;20765;-63
2022/03/25 02:10:24;;;;;;;39.53;27.50;;;7.20;99.90;;;;;;4908916;29;20246;-63
2022/03/25 02:12:52;;;;;;;41.53;24.63;;;7.20;99.90;;;;;;4879261;29;20246;-63
2022/03/25 02:15:39;;;;;;;39.33;25.80;;;7.10;99.90;;;;;;4877934;29;20245;-63
2022/03/25 02:18:19;;;;;;;43.93;26.93;;;7.10;99.90;;;;;;4910074;29;20235;-63
2022/03/25 02:20:48;;;;;;;43.77;27.77;;;7.00;99.90;;;;;;4867971;29;20789;-63
2022/03/25 02:23:21;;;;;;;39.53;24.10;;;7.00;99.90;;;;;;4878115;29;20284;-63
2022/03/25 02:25:52;;;;;;;37.40;23.73;;;7.10;99.90;;;;;;4896282;29;20320;-63
2022/03/25 02:28:24;;;;;;;39.97;26.13;;;7.10;99.90;;;;;;4915460;29;20707;-63
2022/03/25 02:30:56;;;;;;;37.40;24.07;;;7.00;99.90;;;;;;4927735;29;20237;-63
2022/03/25 02:33:25;;;;;;;42.40;27.37;;;7.10;99.90;;;;;;4927231;29;20699;-63
2022/03/25 02:35:53;;;;;;;33.73;23.03;;;7.10;99.90;;;;;;4914913;29;20289;-63
2022/03/25 02:38:25;;;;;;;38.17;23.67;;;7.00;99.90;;;;;;4877312;29;20266;-63
2022/03/25 02:40:54;;;;;;;38.03;26.27;;;7.00;99.90;;;;;;4877345;29;20242;-63
2022/03/25 02:43:27;;;;;;;42.53;27.17;;;7.00;99.90;;;;;;4909843;29;20246;-63
2022/03/25 02:46:05;;;;;;;36.53;24.70;;;6.90;99.90;;;;;;4888803;29;20325;-63
2022/03/25 02:48:33;;;;;;;38.77;25.90;;;6.90;99.90;;;;;;4880799;29;20250;-63
2022/03/25 02:51:01;;;;;;;36.63;23.20;;;6.80;99.90;;;;;;4896174;29;20300;-63
2022/03/25 02:53:31;;;;;;;46.17;28.80;;;6.90;99.90;;;;;;4895246;29;20245;-63
2022/03/25 02:55:59;;;;;;;36.73;24.57;;;6.90;99.90;;;;;;4878269;29;20242;-63
2022/03/25 02:58:27;;;;;;;39.30;26.07;;;6.90;99.90;;;;;;4878182;29;20729;-63
2022/03/25 03:00:55;;;;;;;42.73;25.10;;;6.90;99.90;;;;;;4878546;29;20241;-63
2022/03/25 03:03:24;;;;;;;41.90;26.90;;;6.80;99.90;;;;;;4878127;29;20246;-63
2022/03/25 03:05:52;;;;;;;41.40;26.53;;;6.80;99.90;;;;;;4877942;29;20234;-63
2022/03/25 03:08:20;;;;;;;38.70;25.40;;;6.70;99.90;;;;;;4878550;29;20293;-63
2022/03/25 03:10:50;;;;;;;39.20;25.33;;;6.70;99.90;;;;;;4930526;29;20243;-63
2022/03/25 03:13:20;;;;;;;42.50;27.87;;;6.70;99.90;;;;;;4933896;29;20755;-63
2022/03/25 03:15:49;;;;;;;41.13;25.87;;;6.70;99.90;;;;;;4914992;29;20273;-63
2022/03/25 03:18:20;;;;;;;37.90;24.30;;;6.70;99.90;;;;;;4915310;29;20725;-63
2022/03/25 03:20:48;;;;;;;40.10;26.63;;;6.90;99.90;;;;;;4915080;29;20299;-63
2022/03/25 03:23:16;;;;;;;38.57;24.63;;;6.80;99.90;;;;;;4915143;29;20725;-63
2022/03/25 03:25:44;;;;;;;41.27;26.47;;;6.90;99.90;;;;;;4934006;29;20327;-64
2022/03/25 03:28:14;;;;;;;41.00;29.20;;;6.90;99.90;;;;;;4914803;29;20244;-63
2022/03/25 03:30:42;;;;;;;37.00;25.83;;;6.60;99.90;;;;;;4915091;29;20232;-63
2022/03/25 03:33:11;;;;;;;38.00;24.27;;;6.60;99.90;;;;;;4915274;29;20252;-63
2022/03/25 03:35:39;;;;;;;40.40;26.30;;;6.70;99.90;;;;;;4922775;29;20259;-63
2022/03/25 03:38:08;;;;;;;36.10;24.03;;;6.70;99.90;;;;;;4915421;29;20237;-63
2022/03/25 03:40:37;;;;;;;44.87;29.30;;;6.70;99.90;;;;;;4933318;29;20251;-63
2022/03/25 03:43:05;;;;;;;40.47;26.57;;;6.60;99.90;;;;;;4934117;29;20282;-63
2022/03/25 03:45:34;;;;;;;43.03;26.67;;;6.30;99.90;;;;;;4915089;29;20237;-63
2022/03/25 03:48:02;;;;;;;41.70;24.50;;;6.20;99.90;;;;;;4914656;29;20323;-63
2022/03/25 03:50:29;;;;;;;47.87;29.63;;;6.30;99.90;;;;;;4932174;29;21174;-63
2022/03/25 03:52:57;;;;;;;40.10;27.27;;;6.20;99.90;;;;;;4933822;29;20248;-63
2022/03/25 03:55:26;;;;;;;35.10;24.00;;;6.20;99.90;;;;;;4916396;29;20241;-63
2022/03/25 03:57:54;;;;;;;36.60;24.60;;;6.30;99.90;;;;;;4914332;29;20773;-63
2022/03/25 04:00:24;;;;;;;36.53;23.97;;;6.50;99.90;;;;;;4920668;29;20243;-63
2022/03/25 04:02:55;;;;;;;40.23;25.57;;;6.50;99.90;;;;;;4914708;29;20822;-63
2022/03/25 04:05:24;;;;;;;40.03;25.97;;;6.60;99.90;;;;;;4914334;29;20302;-63
2022/03/25 04:07:52;;;;;;;36.20;24.33;;;6.50;99.90;;;;;;4914251;29;20236;-63
2022/03/25 04:10:21;;;;;;;38.53;24.43;;;6.40;99.90;;;;;;4914361;29;20579;-63
2022/03/25 04:12:49;;;;;;;34.33;23.10;;;6.50;99.90;;;;;;4914376;29;20240;-63
2022/03/25 04:15:17;;;;;;;33.13;22.33;;;6.60;99.90;;;;;;4914382;29;20241;-63
2022/03/25 04:17:46;;;;;;;36.90;24.23;;;6.70;99.90;;;;;;4914156;29;20247;-63
2022/03/25 04:20:18;;;;;;;40.90;27.70;;;6.40;99.90;;;;;;4914064;29;20240;-63
2022/03/25 04:22:47;;;;;;;33.80;22.70;;;6.40;99.90;;;;;;4914109;29;20240;-63
2022/03/25 04:25:15;;;;;;;43.37;27.77;;;6.40;99.90;;;;;;4914197;29;20593;-63
2022/03/25 04:27:54;;;;;;;46.43;29.37;;;6.30;99.90;;;;;;4914029;29;20240;-63
2022/03/25 04:30:30;;;;;;;46.70;28.90;;;6.00;99.90;;;;;;4931363;29;20251;-63
2022/03/25 04:32:59;;;;;;;45.47;28.93;;;5.80;99.90;;;;;;4933398;29;20255;-63
2022/03/25 04:35:29;;;;;;;47.20;28.97;;;5.60;99.90;;;;;;4915640;29;20244;-63
2022/03/25 04:37:58;;;;;;;41.53;25.57;;;5.60;99.90;;;;;;4913963;29;20637;-63
2022/03/25 04:40:28;;;;;;;39.97;25.07;;;5.80;99.90;;;;;;4931049;29;20263;-63
2022/03/25 04:42:58;;;;;;;35.17;23.63;;;5.80;99.90;;;;;;4933033;29;20242;-63
2022/03/25 04:45:28;;;;;;;35.93;23.50;;;5.80;99.90;;;;;;4915581;29;20300;-63
2022/03/25 04:47:56;;;;;;;37.93;25.13;;;6.00;99.90;;;;;;4914141;29;20265;-64
2022/03/25 04:50:25;;;;;;;39.07;24.60;;;6.00;99.90;;;;;;4913973;29;20236;-63
2022/03/25 04:52:54;;;;;;;43.57;27.70;;;6.10;99.90;;;;;;4914154;29;20299;-63
2022/03/25 04:55:22;;;;;;;36.70;24.47;;;6.00;99.90;;;;;;4921787;29;20244;-63
2022/03/25 04:57:50;;;;;;;40.87;25.27;;;6.00;99.90;;;;;;4917288;29;20288;-63
2022/03/25 05:00:18;;;;;;;36.57;24.90;;;6.00;99.90;;;;;;4933885;29;20240;-63
2022/03/25 05:02:48;;;;;;;37.43;24.77;;;6.00;99.90;;;;;;4921824;29;20708;-63
2022/03/25 05:05:19;;;;;;;36.50;24.73;;;6.20;99.90;;;;;;4933456;29;20249;-63
2022/03/25 05:07:50;;;;;;;42.87;24.97;;;6.20;99.90;;;;;;4922514;29;20328;-63
2022/03/25 05:10:19;;;;;;;37.33;24.53;;;5.90;99.90;;;;;;4933596;29;20257;-63
2022/03/25 05:12:47;;;;;;;43.70;28.07;;;6.10;99.90;;;;;;4936425;29;20239;-63
2022/03/25 05:15:16;;;;;;;47.37;28.53;;;5.80;99.90;;;;;;4920499;29;20274;-63
2022/03/25 05:17:46;;;;;;;39.23;27.27;;;5.60;99.90;;;;;;4917294;29;20240;-63
2022/03/25 05:20:16;;;;;;;42.07;26.40;;;5.60;99.90;;;;;;4934181;29;20267;-63
2022/03/25 05:22:44;;;;;;;42.77;26.40;;;5.80;99.90;;;;;;4936401;29;20249;-63
2022/03/25 05:25:13;;;;;;;41.67;27.07;;;5.90;99.90;;;;;;4920936;29;20236;-63
2022/03/25 05:27:48;;;;;;;37.67;25.37;;;5.80;99.90;;;;;;4917140;29;20323;-63
2022/03/25 05:30:17;;;;;;;38.57;25.80;;;5.80;99.90;;;;;;4932877;29;20295;-63
2022/03/25 05:32:45;;;;;;;40.83;26.03;;;5.90;99.90;;;;;;4935978;29;20240;-63
2022/03/25 05:35:18;;;;;;;40.10;25.23;;;6.00;99.90;;;;;;4919984;29;20705;-63
2022/03/25 05:37:46;;;;;;;44.50;29.00;;;6.10;99.90;;;;;;4916838;29;20261;-63
2022/03/25 05:40:16;;;;;;;43.57;29.13;;;5.90;99.90;;;;;;4932469;29;20327;-63
2022/03/25 05:42:46;;;;;;;48.13;30.50;;;5.70;99.90;;;;;;4935936;29;20270;-63
2022/03/25 05:45:15;;;;;;;46.33;30.00;;;5.60;99.90;;;;;;4935811;29;20239;-63
2022/03/25 05:47:43;;;;;;;47.57;29.10;;;5.50;99.90;;;;;;4923147;29;20244;-63
2022/03/25 05:50:12;;;;;;;44.17;27.87;;;5.80;99.90;;;;;;4931962;29;20247;-63
2022/03/25 05:52:41;;;;;;;42.43;27.97;;;5.70;99.90;;;;;;4935778;29;20303;-63
2022/03/25 05:55:10;;;;;;;40.93;26.57;;;6.00;99.90;;;;;;4920887;29;20264;-63
2022/03/25 05:57:38;;;;;;;49.03;28.73;;;6.10;99.90;;;;;;4916813;29;20242;-63
2022/03/25 06:00:11;;;;;;;53.27;32.63;;;6.30;99.90;;;;;;4916703;29;20260;-63
2022/03/25 06:02:42;;;;;;;49.77;30.30;;;6.00;99.90;;;;;;4916269;29;20780;-63
2022/03/25 06:05:12;;;;;;;43.63;29.10;;;5.70;99.90;;;;;;4916460;29;20246;-63
2022/03/25 06:07:41;;;;;;;44.03;28.47;;;5.60;99.90;;;;;;4915478;29;20649;-63
2022/03/25 06:10:11;;;;;;;44.80;29.37;;;5.60;99.90;;;;;;4931263;29;20262;-63
2022/03/25 06:12:40;;;;;;;47.67;29.83;;;5.60;99.90;;;;;;4935390;29;20366;-63
2022/03/25 06:15:11;;;;;;;45.30;28.80;;;5.60;99.90;;;;;;4921010;29;20315;-63
2022/03/25 06:17:43;;;;;;;45.67;29.10;;;5.70;99.90;;;;;;4915688;29;20322;-63
2022/03/25 06:20:13;;;;;;;45.53;29.03;;;5.70;99.90;;;;;;4932925;29;20324;-63
2022/03/25 06:22:42;;;;;;;44.17;28.57;;;5.80;99.90;;;;;;4935148;29;20236;-63
2022/03/25 06:25:12;;;;;;;43.67;27.90;;;5.80;99.90;;;;;;4920207;29;20648;-63
2022/03/25 06:27:51;;;;;;;45.50;27.47;;;5.80;99.90;;;;;;4915505;29;20296;-63
2022/03/25 06:30:22;;;;;;;42.83;27.60;;;5.90;99.90;;;;;;4914089;29;20729;-63
2022/03/25 06:32:51;;;;;;;41.47;27.87;;;6.00;99.90;;;;;;4915525;29;20324;-63
2022/03/25 06:35:20;;;;;;;43.83;28.30;;;6.10;99.90;;;;;;4923810;29;20257;-63
2022/03/25 06:37:48;;;;;;;46.93;30.33;;;6.20;99.90;;;;;;4927110;29;20232;-63
2022/03/25 06:40:17;;;;;;;49.00;30.10;;;6.30;99.90;;;;;;4922341;29;20760;-63
2022/03/25 06:42:45;;;;;;;48.30;31.57;;;6.40;99.90;;;;;;4922364;29;20238;-63
2022/03/25 06:45:16;;;;;;;55.23;34.20;;;6.50;99.90;;;;;;4923338;29;20332;-63
2022/03/25 06:47:46;;;;;;;53.30;35.00;;;6.60;99.90;;;;;;4927478;29;20383;-63
2022/03/25 06:50:16;;;;;;;62.67;40.30;;;6.80;99.90;;;;;;4922730;29;20239;-63
2022/03/25 06:52:45;;;;;;;61.63;39.37;;;7.00;99.90;;;;;;4922335;29;20313;-63
2022/03/25 06:55:15;;;;;;;77.77;45.17;;;7.10;99.90;;;;;;4914754;29;20247;-63
2022/03/25 06:57:48;;;;;;;69.40;44.43;;;7.30;99.90;;;;;;4928026;29;20236;-63
2022/03/25 07:00:18;;;;;;;77.30;47.93;;;7.40;99.90;;;;;;4923742;29;20241;-63
2022/03/25 07:02:49;;;;;;;75.00;44.47;;;7.60;99.90;;;;;;4921908;29;20337;-63
2022/03/25 07:05:18;;;;;;;70.67;44.90;;;7.70;99.90;;;;;;4915222;29;20735;-63
2022/03/25 07:07:46;;;;;;;65.43;42.63;;;7.90;99.90;;;;;;4915104;29;20232;-63
2022/03/25 07:10:16;;;;;;;57.97;38.87;;;8.00;99.90;;;;;;4918106;29;20240;-63
2022/03/25 07:12:46;;;;;;;65.73;42.07;;;8.20;99.90;;;;;;4915336;29;21291;-63
2022/03/25 07:15:14;;;;;;;69.40;43.63;;;8.30;99.90;;;;;;4916438;29;20245;-63
2022/03/25 07:17:43;;;;;;;70.80;47.87;;;8.40;99.90;;;;;;4926215;29;20232;-63
2022/03/25 07:20:14;;;;;;;76.17;49.37;;;8.50;99.90;;;;;;4915420;29;20323;-63
2022/03/25 07:22:43;;;;;;;79.43;50.07;;;8.60;99.90;;;;;;4914870;29;20236;-63
2022/03/25 07:25:11;;;;;;;85.60;51.37;;;8.60;99.90;;;;;;4921166;29;20275;-63
2022/03/25 07:27:40;;;;;;;89.97;52.77;;;8.80;99.90;;;;;;4915348;29;20299;-63
2022/03/25 07:30:10;;;;;;;90.47;53.93;;;8.90;99.90;;;;;;4915408;29;20255;-63
2022/03/25 07:32:38;;;;;;;85.60;53.53;;;9.10;99.90;;;;;;4914921;29;20361;-63
2022/03/25 07:35:07;;;;;;;84.43;53.07;;;9.20;99.90;;;;;;4915376;29;20237;-63
2022/03/25 07:37:37;;;;;;;81.53;51.60;;;9.20;99.90;;;;;;4914803;29;20718;-63
2022/03/25 07:40:08;;;;;;;83.07;51.10;;;9.20;99.90;;;;;;4923503;29;20324;-63
2022/03/25 07:42:37;;;;;;;79.37;51.73;;;9.20;99.90;;;;;;4914073;29;20292;-63
2022/03/25 07:45:08;;;;;;;81.63;51.77;;;9.40;99.90;;;;;;4913622;29;20244;-63
2022/03/25 07:47:40;;;;;;;83.43;52.57;;;9.70;99.90;;;;;;4913810;29;20320;-63
2022/03/25 07:50:09;;;;;;;88.30;55.87;;;9.90;99.90;;;;;;4914298;29;20232;-63
2022/03/25 07:52:40;;;;;;;84.17;53.33;;;10.10;99.90;;;;;;4913831;29;20251;-63
2022/03/25 07:55:10;;;;;;;84.53;54.53;;;10.20;99.90;;;;;;4918576;29;20303;-63
2022/03/25 07:57:38;;;;;;;79.53;53.37;;;10.30;99.90;;;;;;4914696;29;20253;-63
2022/03/25 08:00:11;;;;;;;82.87;53.50;;;10.30;99.90;;;;;;4914576;29;20238;-63
2022/03/25 08:02:40;;;;;;;77.40;50.70;;;10.50;99.90;;;;;;4895272;29;20671;-63
2022/03/25 08:05:10;;;;;;;79.70;53.17;;;10.70;99.90;;;;;;4915646;29;20249;-63
2022/03/25 08:07:52;;;;;;;78.70;50.57;;;10.90;99.90;;;;;;4913952;29;20237;-63
2022/03/25 08:10:22;;;;;;;72.47;49.13;;;11.10;99.90;;;;;;4913508;29;20290;-63
2022/03/25 08:12:51;;;;;;;76.23;52.03;;;11.40;99.90;;;;;;4914109;29;20248;-63
2022/03/25 08:15:20;;;;;;;79.33;51.57;;;11.60;99.90;;;;;;4913892;29;20245;-63
2022/03/25 08:17:50;;;;;;;77.73;50.87;;;11.80;99.90;;;;;;4913799;29;20239;-63
2022/03/25 08:20:26;;;;;;;76.17;51.70;;;11.90;99.90;;;;;;4921092;29;20329;-62
2022/03/25 08:22:57;;;;;;;74.07;51.67;;;12.10;99.90;;;;;;4917840;29;20234;-62
2022/03/25 08:28:11;;;;;;;69.90;48.50;;;12.50;99.90;;;;;;4918628;29;20681;-62
2022/03/25 08:30:40;;;;;;;72.20;50.97;;;12.80;99.90;;;;;;4918067;29;20806;-62
2022/03/25 08:33:08;;;;;;;72.90;49.53;;;13.00;99.90;;;;;;4919525;29;20337;-63
2022/03/25 08:35:38;;;;;;;75.50;50.43;;;13.10;99.90;;;;;;4919056;29;20247;-62
2022/03/25 08:38:09;;;;;;;69.33;48.90;;;13.20;99.90;;;;;;4920261;29;20306;-62
2022/03/25 08:40:38;;;;;;;71.03;49.27;;;13.30;99.90;;;;;;4918717;29;20241;-63
2022/03/25 08:43:24;;;;;;;65.97;47.07;;;13.40;99.90;;;;;;4916980;29;20259;-62
2022/03/25 08:45:52;;;;;;;67.17;48.43;;;13.50;99.90;;;;;;4917819;29;20247;-63
2022/03/25 08:48:20;;;;;;;67.27;47.83;;;13.70;99.90;;;;;;4916879;29;20231;-63
2022/03/25 08:50:49;;;;;;;63.87;44.43;;;13.80;99.90;;;;;;4918556;29;20341;-62
2022/03/25 08:53:18;;;;;;;64.03;44.83;;;14.00;99.90;;;;;;4919095;29;20252;-62
2022/03/25 08:55:46;;;;;;;65.00;45.63;;;14.10;99.90;;;;;;4919581;29;20307;-62
2022/03/25 08:58:14;;;;;;;63.70;45.87;;;14.20;99.90;;;;;;4918689;29;20254;-62
2022/03/25 09:00:43;;;;;;;64.00;44.50;;;14.30;99.90;;;;;;4917123;29;20798;-62
2022/03/25 09:03:12;;;;;;;69.73;44.17;;;14.40;99.90;;;;;;4917643;29;20335;-62
2022/03/25 09:05:41;;;;;;;59.40;42.83;;;14.60;99.90;;;;;;4919145;29;20252;-63
2022/03/25 09:08:09;;;;;;;59.17;42.33;;;14.80;99.90;;;;;;4918744;29;20258;-62
2022/03/25 09:10:38;;;;;;;58.77;39.77;;;14.90;99.90;;;;;;4919309;29;20323;-62
2022/03/25 09:13:07;;;;;;;57.17;40.63;;;15.20;99.90;;;;;;4918984;29;20639;-62
2022/03/25 09:15:35;;;;;;;56.10;40.03;;;15.20;99.90;;;;;;4915536;29;20239;-62
2022/03/25 09:18:03;;;;;;;54.03;37.63;;;15.20;99.90;;;;;;4915408;29;20228;-62
2022/03/25 09:20:34;;;;;;;53.27;37.77;;;15.00;99.90;;;;;;4915891;29;20250;-62
2022/03/25 09:23:02;;;;;;;49.73;35.07;;;14.90;99.90;;;;;;4913662;29;20751;-62
2022/03/25 09:25:31;;;;;;;47.17;33.43;;;15.10;99.90;;;;;;4915472;29;20236;-62
2022/03/25 09:28:00;;;;;;;47.57;34.13;;;15.40;99.90;;;;;;4918251;29;20586;-62
2022/03/25 09:30:29;;;;;;;46.87;32.17;;;15.50;99.90;;;;;;4912440;29;20241;-62
2022/03/25 09:33:07;;;;;;;47.53;31.90;;;15.70;99.90;;;;;;4916420;29;20239;-62
2022/03/25 09:35:38;;;;;;;41.40;29.00;;;16.00;99.90;;;;;;4912948;29;20813;-62
2022/03/25 09:38:07;;;;;;;42.90;29.47;;;16.20;99.90;;;;;;4914055;29;20247;-62
2022/03/25 09:40:35;;;;;;;48.03;30.47;;;16.00;99.90;;;;;;4912776;29;20311;-62
2022/03/25 09:43:05;;;;;;;41.80;28.23;;;16.00;99.90;;;;;;4914894;29;20319;-62
2022/03/25 09:45:35;;;;;;;43.43;30.57;;;16.30;99.90;;;;;;4916373;29;20300;-62
2022/03/25 09:48:05;;;;;;;43.20;29.87;;;16.40;99.90;;;;;;4920037;29;20244;-62
2022/03/25 09:50:37;;;;;;;45.77;30.70;;;16.20;99.90;;;;;;4919302;29;20719;-62
2022/03/25 09:53:06;;;;;;;44.10;31.37;;;16.30;99.90;;;;;;4919551;29;20723;-62
2022/03/25 09:55:40;;;;;;;43.50;30.60;;;16.50;99.90;;;;;;4921500;29;20287;-62
2022/03/25 09:58:12;;;;;;;43.33;31.53;;;16.80;99.90;;;;;;4924603;29;20608;-62
2022/03/25 10:00:41;;;;;;;42.63;31.27;;;17.00;99.90;;;;;;4919411;29;20255;-62
2022/03/25 10:03:23;;;;;;;45.93;32.23;;;17.00;99.90;;;;;;4916653;29;20260;-62
2022/03/25 10:05:57;;;;;;;46.40;33.50;;;17.00;99.90;;;;;;4921807;29;20258;-62
2022/03/25 10:08:39;;;;;;;46.47;32.30;;;17.00;99.90;;;;;;4920347;29;20272;-62
2022/03/25 10:11:23;;;;;;;45.37;32.00;;;17.00;99.90;;;;;;4882405;29;20608;-62
2022/03/25 10:14:14;;;;;;;43.70;31.80;;;17.10;99.90;;;;;;4878582;29;20727;-62
2022/03/25 10:16:45;;;;;;;44.53;30.13;;;17.00;99.90;;;;;;4894449;29;20241;-62
2022/03/25 10:19:17;;;;;;;46.40;32.10;;;17.30;99.90;;;;;;4879832;29;20294;-62
2022/03/25 10:21:54;;;;;;;47.53;31.50;;;17.50;99.90;;;;;;4877681;29;20242;-62
2022/03/25 10:24:36;;;;;;;49.13;31.57;;;17.90;99.90;;;;;;4882302;29;20241;-62
2022/03/25 10:27:15;;;;;;;37.40;28.47;;;18.00;99.90;;;;;;4880075;29;20243;-61
2022/03/25 10:29:47;;;;;;;45.23;31.50;;;18.10;99.90;;;;;;4878856;29;20238;-62
2022/03/25 10:32:19;;;;;;;44.00;29.17;;;18.10;99.90;;;;;;4878441;29;20281;-62
2022/03/25 10:35:02;;;;;;;43.07;30.07;;;18.50;99.90;;;;;;4877403;29;20242;-62
2022/03/25 10:37:30;;;;;;;44.30;31.00;;;18.60;99.90;;;;;;4876542;29;20325;-61
2022/03/25 10:39:58;;;;;;;36.57;25.33;;;18.60;99.90;;;;;;4877460;29;20242;-61
2022/03/25 10:42:26;;;;;;;39.53;25.97;;;18.40;99.90;;;;;;4877357;29;20247;-61
2022/03/25 10:45:01;;;;;;;41.63;28.13;;;18.20;99.90;;;;;;4877350;29;20258;-61
2022/03/25 10:47:31;;;;;;;40.57;26.93;;;18.50;99.90;;;;;;4877227;29;20306;-61
2022/03/25 10:50:13;;;;;;;37.73;24.23;;;18.70;99.90;;;;;;4879667;29;20353;-61
2022/03/25 10:52:42;;;;;;;31.60;23.40;;;18.50;99.90;;;;;;4877078;29;20322;-61
2022/03/25 10:55:19;;;;;;;36.60;25.77;;;18.80;99.90;;;;;;4879109;29;20242;-61
2022/03/25 10:57:54;;;;;;;34.87;23.30;;;19.00;99.90;;;;;;4879426;29;20297;-61
2022/03/25 11:00:24;;;;;;;31.93;23.07;;;19.10;99.90;;;;;;4882285;29;20754;-61
2022/03/25 11:02:54;;;;;;;31.50;23.23;;;19.60;99.90;;;;;;4879034;29;20300;-61
2022/03/25 11:05:23;;;;;;;36.07;24.47;;;19.10;99.90;;;;;;4879321;29;20605;-61
2022/03/25 11:07:51;;;;;;;35.00;25.63;;;18.80;99.90;;;;;;4879257;29;20654;-61
2022/03/25 11:10:20;;;;;;;37.43;24.77;;;18.60;99.90;;;;;;4916316;29;20726;-62
2022/03/25 11:12:50;;;;;;;37.37;24.27;;;18.60;99.90;;;;;;4921251;29;20328;-62
2022/03/25 11:15:21;;;;;;;37.70;23.83;;;19.00;99.90;;;;;;4920517;29;20247;-61
2022/03/25 11:17:50;;;;;;;29.50;21.83;;;18.80;99.90;;;;;;4913231;29;20656;-61
2022/03/25 11:20:22;;;;;;;29.30;20.97;;;18.90;99.40;;;;;;4916110;29;20242;-61
2022/03/25 11:23:00;;;;;;;28.73;20.37;;;18.70;99.90;;;;;;4916499;29;20258;-61
2022/03/25 11:25:31;;;;;;;31.53;22.33;;;18.60;99.90;;;;;;4916417;29;20322;-61
2022/03/25 11:28:02;;;;;;;32.97;21.90;;;18.70;99.90;;;;;;4916873;29;20246;-61
2022/03/25 11:30:35;;;;;;;31.47;20.60;;;18.60;99.90;;;;;;4918387;29;20400;-62
2022/03/25 11:33:07;;;;;;;31.40;19.73;;;18.90;99.90;;;;;;4913042;29;20299;-61
2022/03/25 11:35:37;;;;;;;30.47;21.27;;;19.00;99.70;;;;;;4913681;29;20321;-61
2022/03/25 11:38:23;;;;;;;27.57;19.23;;;18.90;99.90;;;;;;4921745;29;20238;-62
2022/03/25 11:40:53;;;;;;;31.77;21.43;;;19.60;99.90;;;;;;4916263;29;20318;-62
2022/03/25 11:43:23;;;;;;;35.93;22.10;;;19.30;99.20;;;;;;4930935;29;20325;-62
2022/03/25 11:46:09;;;;;;;27.13;20.47;;;19.20;99.40;;;;;;4914792;29;20597;-62
2022/03/25 11:48:44;;;;;;;33.13;21.17;;;19.40;99.40;;;;;;4914190;29;20247;-62
2022/03/25 11:51:30;;;;;;;28.07;20.70;;;19.20;98.30;;;;;;4922152;29;20324;-62
2022/03/25 11:53:58;;;;;;;29.90;20.57;;;19.60;99.40;;;;;;4928079;29;20694;-62
2022/03/25 11:56:48;;;;;;;29.53;20.10;;;19.70;98.00;;;;;;4923911;29;20240;-62
2022/03/25 11:59:17;;;;;;;28.73;19.77;;;19.00;98.60;;;;;;4926077;29;20259;-62
2022/03/25 12:01:46;;;;;;;28.30;18.70;;;19.20;99.90;;;;;;4925377;29;20242;-61
2022/03/25 12:04:34;;;;;;;29.10;19.53;;;19.50;99.40;;;;;;4926024;29;20250;-62
2022/03/25 12:07:08;;;;;;;23.80;17.00;;;19.70;99.90;;;;;;4918719;29;20243;-62
2022/03/25 12:09:39;;;;;;;25.33;18.37;;;19.60;97.70;;;;;;4921660;29;20291;-61
2022/03/25 12:12:08;;;;;;;26.83;16.37;;;19.20;98.30;;;;;;4915269;29;20322;-62
2022/03/25 12:14:37;;;;;;;25.47;17.47;;;18.90;98.20;;;;;;4915695;29;20295;-62
2022/03/25 12:17:07;;;;;;;31.43;18.50;;;18.90;98.60;;;;;;4914489;29;20604;-62
2022/03/25 12:19:51;;;;;;;25.33;16.17;;;18.40;99.30;;;;;;4918129;29;20751;-62
2022/03/25 12:22:34;;;;;;;21.57;14.40;;;18.40;99.70;;;;;;4914497;29;20774;-62
2022/03/25 12:25:13;;;;;;;26.60;16.47;;;18.50;99.90;;;;;;4931663;29;20321;-62
2022/03/25 12:27:43;;;;;;;24.77;16.10;;;18.60;98.70;;;;;;4918448;29;20687;-62
2022/03/25 12:30:12;;;;;;;24.43;16.13;;;18.60;99.30;;;;;;4924639;29;20253;-62
2022/03/25 12:32:40;;;;;;;24.90;16.50;;;18.40;98.90;;;;;;4905521;29;20443;-61
2022/03/25 12:35:13;;;;;;;22.57;15.07;;;18.10;99.40;;;;;;4921724;29;20255;-61
2022/03/25 12:37:48;;;;;;;27.30;15.57;;;18.10;99.30;;;;;;4918051;29;20241;-61
2022/03/25 12:40:20;;;;;;;27.63;17.80;;;17.90;99.00;;;;;;4924575;29;21064;-62
2022/03/25 12:42:49;;;;;;;26.27;16.80;;;17.60;99.00;;;;;;4926207;29;20248;-62
2022/03/25 12:45:19;;;;;;;29.37;16.03;;;17.30;99.90;;;;;;4917040;29;20854;-61
2022/03/25 12:47:48;;;;;;;25.47;15.70;;;16.90;99.90;;;;;;4913924;29;20581;-60
2022/03/25 12:50:18;;;;;;;23.53;15.67;;;17.00;99.90;;;;;;4921808;29;20329;-61
2022/03/25 12:52:46;;;;;;;26.92;18.10;;;17.20;99.90;;;;;;4925490;29;20458;-61